sim
Sign-in with your pilot id or email,
or register
Callsign
Passwort

Schedule Details

Flight Number: OEO4701
Departure: Amsterdam Schiphol Airport (EHAM) at 15:10
Arrival: Munich Airport (EDDM) at 16:40

Weather Information
Getting current METAR information for EHAM 190825Z 07008KT 040V100 CAVOK 15/07 Q1019 NOSIG
Getting current METAR information for EDDM 190820Z 09007KT CAVOK 14/08 Q1020 NOSIG

Schedule Frequency

Route Map